Gran Canaria, Spain
Current Conditions -  °F | °C
As of 8:30 PM on Friday 19 Dec 2014 (Local Time) from GCLP Reporting Station
Scattered Clouds Scattered Clouds  
Wind Chill: 64°   Ceiling: Unl
Heat Index: 64°   Visibility: 6mi
Dew Point: 57°   Wind: 12mph
Humidity: 77%   Direction: 350°N
Pressure: 30.36"   Gusts: NA
Location:  28.14°N, 15.43°W
Report Text: GCLP 192030Z 35010KT 9999 FEW015 SCT020 18/14 Q1028 NOSIG
Loading
Personal Weather Stations






























Interactive Weather Map New forecast layout! Learn more

10-Day Weather Forecast

Advertisements
Track Severe Weather on mobile